Time;durP1;ratioP1;P1;durP2;ratioP2;P2;SDS_P1;SDS_P2;PMS_P1;PMS_P2;Temp;Humidity;BMP_temperature;BMP_pressure;BME280_temperature;BME280_humidity;BME280_pressure;Samples;Min_cycle;Max_cycle;Signal;HPM_P1;HPM_P2
2022/03/26 00:01:48;;;;;;;37.37;13.90;;;;;7.40;97368.00;;;;8401054;28;20330;-76
2022/03/26 00:05:51;;;;;;;35.33;12.93;;;;;7.40;97366.00;;;;8384192;28;20248;-75
2022/03/26 00:09:56;;;;;;;31.77;12.33;;;;;7.40;97361.00;;;;8384773;28;20741;-74
2022/03/26 00:13:59;;;;;;;32.77;12.93;;;;;7.30;97368.00;;;;8389900;28;20327;-75
2022/03/26 00:18:02;;;;;;;33.47;13.77;;;;;7.30;97360.00;;;;8382446;28;20223;-75
2022/03/26 00:22:06;;;;;;;35.93;13.87;;;;;7.30;97362.00;;;;8378915;28;20315;-75
2022/03/26 00:26:12;;;;;;;43.60;14.00;;;;;7.20;97366.00;;;;8382517;28;20231;-75
2022/03/26 00:30:15;;;;;;;34.67;13.10;;;;;7.20;97369.00;;;;8384941;28;21464;-75
2022/03/26 00:34:18;;;;;;;32.70;13.20;;;;;7.20;97368.00;;;;8388776;28;20700;-73
2022/03/26 00:38:21;;;;;;;31.60;12.30;;;;;7.20;97373.00;;;;8393248;28;20413;-74
2022/03/26 00:42:26;;;;;;;31.57;13.80;;;;;7.20;97373.00;;;;8389663;28;20329;-73
2022/03/26 00:46:29;;;;;;;39.67;12.77;;;;;7.20;97374.00;;;;8397003;28;20227;-74
2022/03/26 00:50:32;;;;;;;32.40;12.83;;;;;7.20;97370.00;;;;8395500;28;20231;-73
2022/03/26 00:54:35;;;;;;;33.23;13.17;;;;;7.10;97369.00;;;;8383986;28;20314;-73
2022/03/26 00:58:41;;;;;;;34.87;13.27;;;;;7.10;97368.00;;;;8382406;28;20668;-74
2022/03/26 01:02:44;;;;;;;33.57;14.03;;;;;7.10;97368.00;;;;8387048;28;20232;-75
2022/03/26 01:06:47;;;;;;;37.87;13.57;;;;;7.10;97363.00;;;;8383721;28;20227;-74
2022/03/26 01:10:50;;;;;;;34.27;13.37;;;;;7.00;97366.00;;;;8374452;28;20686;-74
2022/03/26 01:14:55;;;;;;;37.63;14.23;;;;;7.10;97368.00;;;;8395173;28;20287;-77
2022/03/26 01:18:58;;;;;;;37.13;14.37;;;;;7.00;97365.00;;;;8386409;28;20240;-75
2022/03/26 01:23:01;;;;;;;35.83;14.07;;;;;6.90;97368.00;;;;8384033;28;20309;-76
2022/03/26 01:27:06;;;;;;;41.03;15.33;;;;;6.90;97374.00;;;;8385153;28;20684;-75
2022/03/26 01:31:11;;;;;;;37.93;14.67;;;;;6.80;97363.00;;;;8383375;28;20228;-75
2022/03/26 01:35:15;;;;;;;36.10;15.17;;;;;6.80;97368.00;;;;8385781;28;20810;-75
2022/03/26 01:39:20;;;;;;;31.70;14.07;;;;;6.80;97369.00;;;;8381880;28;20554;-73
2022/03/26 01:43:24;;;;;;;44.03;14.83;;;;;6.80;97363.00;;;;8392189;28;20302;-74
2022/03/26 01:47:28;;;;;;;41.00;14.57;;;;;6.70;97359.00;;;;8384025;28;20306;-74
2022/03/26 01:51:31;;;;;;;38.20;14.80;;;;;6.70;97353.00;;;;8383399;28;20224;-74
2022/03/26 01:55:35;;;;;;;38.87;15.77;;;;;6.60;97345.00;;;;8377049;28;20601;-74
2022/03/26 01:59:39;;;;;;;40.10;13.90;;;;;6.50;97341.00;;;;8392230;28;20521;-74
2022/03/26 02:03:44;;;;;;;43.03;16.67;;;;;6.50;97344.00;;;;8387681;28;20249;-75
2022/03/26 02:07:49;;;;;;;42.70;15.73;;;;;6.50;97343.00;;;;8376621;28;20225;-76
2022/03/26 02:11:52;;;;;;;46.40;16.47;;;;;6.40;97341.00;;;;8380731;28;20238;-74
2022/03/26 02:15:56;;;;;;;41.63;14.90;;;;;6.40;97336.00;;;;8379613;28;20314;-75
2022/03/26 02:20:02;;;;;;;46.50;16.20;;;;;6.30;97333.00;;;;8394612;28;20321;-80
2022/03/26 02:24:08;;;;;;;36.20;15.63;;;;;6.30;97334.00;;;;8386095;28;20263;-78
2022/03/26 02:28:11;;;;;;;37.83;14.83;;;;;6.30;97335.00;;;;8376387;28;20255;-78
2022/03/26 02:32:14;;;;;;;47.93;15.30;;;;;6.30;97328.00;;;;8385149;28;20317;-79
2022/03/26 02:36:19;;;;;;;43.67;15.20;;;;;6.30;97328.00;;;;8375442;28;20242;-80
2022/03/26 02:40:22;;;;;;;43.90;16.13;;;;;6.20;97312.00;;;;8381272;28;20227;-78
2022/03/26 02:44:25;;;;;;;41.60;16.07;;;;;6.20;97332.00;;;;8382848;28;20229;-76
2022/03/26 02:48:29;;;;;;;41.13;16.20;;;;;6.20;97326.00;;;;8380491;28;20232;-75
2022/03/26 02:52:35;;;;;;;52.40;17.37;;;;;6.10;97326.00;;;;8381044;28;20270;-75
2022/03/26 02:56:39;;;;;;;44.17;16.63;;;;;6.10;97319.00;;;;8382308;28;20237;-75
2022/03/26 03:00:42;;;;;;;46.43;16.80;;;;;5.90;97326.00;;;;8422430;22;20225;-72
2022/03/26 03:04:45;;;;;;;44.20;16.73;;;;;5.80;97332.00;;;;8399374;22;20300;-75
2022/03/26 03:08:50;;;;;;;39.17;15.67;;;;;5.70;97325.00;;;;8362336;28;20308;-77
2022/03/26 03:12:53;;;;;;;46.30;17.67;;;;;5.70;97328.00;;;;8371055;28;20225;-73
2022/03/26 03:16:56;;;;;;;45.73;16.30;;;;;5.80;97337.00;;;;8373987;28;20701;-73
2022/03/26 03:21:00;;;;;;;50.50;17.03;;;;;5.80;97322.00;;;;8368007;28;20219;-74
2022/03/26 03:25:06;;;;;;;56.77;16.87;;;;;5.70;97306.00;;;;8367299;28;20266;-74
2022/03/26 03:29:09;;;;;;;40.87;16.97;;;;;5.60;97317.00;;;;8374777;28;20390;-74
2022/03/26 03:33:12;;;;;;;50.23;17.17;;;;;5.50;97317.00;;;;8381193;28;20235;-74
2022/03/26 03:37:15;;;;;;;43.07;16.40;;;;;5.30;97316.00;;;;8368965;28;20231;-74
2022/03/26 03:41:20;;;;;;;48.63;16.90;;;;;5.00;97318.00;;;;8374865;28;20232;-74
2022/03/26 03:45:23;;;;;;;58.97;18.93;;;;;4.70;97315.00;;;;8370683;28;20229;-73
2022/03/26 03:49:29;;;;;;;45.87;16.57;;;;;4.50;97318.00;;;;8376408;28;20234;-74
2022/03/26 03:53:32;;;;;;;47.73;18.47;;;;;4.30;97311.00;;;;8382750;28;20240;-75
2022/03/26 03:57:41;;;;;;;49.40;18.60;;;;;4.30;97310.00;;;;8371662;28;20235;-75
2022/03/26 04:01:44;;;;;;;48.23;16.80;;;;;4.10;97314.00;;;;8367526;28;20220;-76
2022/03/26 04:05:48;;;;;;;46.60;17.43;;;;;4.00;97323.00;;;;8336619;28;20739;-74
2022/03/26 04:09:51;;;;;;;46.13;18.60;;;;;4.00;97320.00;;;;8334649;28;20226;-74
2022/03/26 04:13:55;;;;;;;47.97;16.70;;;;;4.00;97318.00;;;;8341660;28;20702;-75
2022/03/26 04:17:59;;;;;;;44.27;18.27;;;;;4.10;97327.00;;;;8341633;28;20249;-76
2022/03/26 04:22:02;;;;;;;52.53;19.47;;;;;4.20;97320.00;;;;8333673;28;20237;-75
2022/03/26 04:26:05;;;;;;;50.70;17.47;;;;;4.20;97325.00;;;;8335870;28;20241;-76
2022/03/26 04:30:11;;;;;;;52.00;19.27;;;;;4.30;97327.00;;;;8334985;28;20225;-74
2022/03/26 04:34:15;;;;;;;46.10;18.03;;;;;4.60;97332.00;;;;8338223;28;20234;-75
2022/03/26 04:38:18;;;;;;;48.23;18.20;;;;;4.80;97342.00;;;;8347626;28;20236;-75
2022/03/26 04:42:22;;;;;;;41.33;16.67;;;;;4.60;97338.00;;;;8342251;28;20225;-75
2022/03/26 04:46:27;;;;;;;40.50;17.27;;;;;4.20;97343.00;;;;8342204;28;20236;-75
2022/03/26 04:50:30;;;;;;;43.60;16.77;;;;;3.80;97348.00;;;;8336049;28;20222;-75
2022/03/26 04:54:33;;;;;;;46.07;15.90;;;;;3.50;97345.00;;;;8329847;28;20696;-76
2022/03/26 04:58:37;;;;;;;66.83;22.97;;;;;3.20;97338.00;;;;8340429;28;20240;-75
2022/03/26 05:02:41;;;;;;;53.50;19.17;;;;;3.30;97344.00;;;;8344363;28;20239;-75
2022/03/26 05:06:44;;;;;;;49.13;18.60;;;;;3.70;97361.00;;;;8340302;28;20233;-75
2022/03/26 05:10:48;;;;;;;44.97;16.80;;;;;3.90;97354.00;;;;8342585;28;20222;-75
2022/03/26 05:14:51;;;;;;;46.03;18.87;;;;;4.00;97367.00;;;;8332176;28;20283;-75
2022/03/26 05:18:56;;;;;;;46.80;18.63;;;;;4.10;97373.00;;;;8334735;28;20235;-75
2022/03/26 05:23:01;;;;;;;53.73;18.73;;;;;4.40;97370.00;;;;8340392;28;20970;-74
2022/03/26 05:27:05;;;;;;;49.33;18.70;;;;;4.60;97375.00;;;;8335253;28;20245;-77
2022/03/26 05:31:08;;;;;;;52.37;19.10;;;;;4.70;97374.00;;;;8335802;28;20231;-75
2022/03/26 05:35:14;;;;;;;44.67;17.87;;;;;4.80;97382.00;;;;8344269;28;20259;-75
2022/03/26 05:39:18;;;;;;;42.27;16.93;;;;;4.70;97379.00;;;;8343315;28;20227;-77
2022/03/26 05:43:21;;;;;;;50.57;18.77;;;;;4.60;97377.00;;;;8325716;28;20916;-76
2022/03/26 05:47:24;;;;;;;47.10;18.07;;;;;4.60;97385.00;;;;8338978;28;20244;-75
2022/03/26 05:51:29;;;;;;;51.03;19.00;;;;;4.60;97393.00;;;;8328776;28;20226;-76
2022/03/26 05:55:33;;;;;;;51.97;18.10;;;;;4.80;97395.00;;;;8327733;28;20244;-78
2022/03/26 05:59:36;;;;;;;52.17;19.37;;;;;5.10;97405.00;;;;8331885;28;20236;-76
2022/03/26 06:03:39;;;;;;;61.07;19.67;;;;;5.40;97394.00;;;;8319355;28;20223;-77
2022/03/26 06:07:44;;;;;;;47.93;19.10;;;;;5.50;97394.00;;;;8299745;28;20266;-78
2022/03/26 06:11:47;;;;;;;53.57;18.93;;;;;5.70;97396.00;;;;8309814;28;20228;-78
2022/03/26 06:15:50;;;;;;;52.47;18.10;;;;;5.70;97405.00;;;;8310834;28;20675;-74
2022/03/26 06:19:53;;;;;;;45.40;17.50;;;;;5.70;97411.00;;;;8308585;28;20610;-74
2022/03/26 06:23:58;;;;;;;48.63;18.10;;;;;5.70;97411.00;;;;8301816;28;20322;-75
2022/03/26 06:28:02;;;;;;;45.40;18.93;;;;;5.80;97419.00;;;;8306434;28;20225;-75
2022/03/26 06:32:06;;;;;;;48.60;18.17;;;;;5.80;97416.00;;;;8306231;28;20225;-73
2022/03/26 06:36:09;;;;;;;44.60;18.17;;;;;5.90;97420.00;;;;8297780;28;20566;-75
2022/03/26 06:40:14;;;;;;;53.63;20.43;;;;;5.90;97423.00;;;;8306248;28;21000;-75
2022/03/26 06:44:17;;;;;;;59.17;20.07;;;;;6.20;97421.00;;;;8305788;28;20235;-74
2022/03/26 06:48:21;;;;;;;56.23;21.13;;;;;6.60;97433.00;;;;8303646;28;20237;-73
2022/03/26 06:52:24;;;;;;;52.37;18.73;;;;;7.00;97431.00;;;;8304325;28;20224;-73
2022/03/26 06:56:28;;;;;;;47.93;19.03;;;;;7.30;97435.00;;;;8302886;28;20230;-75
2022/03/26 07:00:32;;;;;;;53.10;19.90;;;;;7.60;97433.00;;;;8302717;28;20326;-73
2022/03/26 07:04:35;;;;;;;43.73;16.27;;;;;7.80;97436.00;;;;8317363;28;20240;-75
2022/03/26 07:08:38;;;;;;;49.73;19.33;;;;;8.00;97438.00;;;;8322296;28;20242;-73
2022/03/26 07:12:43;;;;;;;52.70;20.33;;;;;8.20;97437.00;;;;8332276;28;20903;-75
2022/03/26 07:16:46;;;;;;;50.93;20.27;;;;;8.40;97435.00;;;;8325249;28;20232;-74
2022/03/26 07:20:49;;;;;;;52.60;19.23;;;;;8.60;97435.00;;;;8289232;28;20307;-75
2022/03/26 07:24:52;;;;;;;49.90;19.00;;;;;8.80;97441.00;;;;8323346;28;20304;-75
2022/03/26 07:28:57;;;;;;;41.43;18.17;;;;;9.00;97443.00;;;;8322639;28;20241;-74
2022/03/26 07:33:02;;;;;;;57.07;18.73;;;;;9.20;97441.00;;;;8330285;28;20721;-75
2022/03/26 07:37:05;;;;;;;51.73;20.20;;;;;9.40;97448.00;;;;8325448;28;20258;-72
2022/03/26 07:41:09;;;;;;;49.00;19.70;;;;;9.50;97454.00;;;;8322902;28;20234;-74
2022/03/26 07:45:13;;;;;;;57.27;21.93;;;;;9.70;97462.00;;;;8324953;28;20229;-72
2022/03/26 07:49:16;;;;;;;52.83;20.43;;;;;9.80;97467.00;;;;8319159;28;20236;-73
2022/03/26 07:53:22;;;;;;;53.93;19.10;;;;;9.90;97471.00;;;;8319531;28;20522;-74
2022/03/26 07:57:29;;;;;;;54.43;20.83;;;;;10.00;97476.00;;;;8315404;28;20273;-74
2022/03/26 08:01:33;;;;;;;54.60;21.23;;;;;10.10;97483.00;;;;8319692;28;20238;-74
2022/03/26 08:05:38;;;;;;;49.40;20.00;;;;;10.30;97487.00;;;;8339291;28;20233;-75
2022/03/26 08:09:41;;;;;;;51.03;20.40;;;;;10.40;97486.00;;;;8348235;28;20264;-75
2022/03/26 08:13:44;;;;;;;53.73;20.70;;;;;10.60;97494.00;;;;8349123;28;20236;-73
2022/03/26 08:17:49;;;;;;;54.67;20.70;;;;;10.70;97492.00;;;;8350132;28;20231;-79
2022/03/26 08:21:52;;;;;;;49.43;19.80;;;;;11.00;97487.00;;;;8343709;28;20936;-74
2022/03/26 08:30:17;;;;;;;56.28;20.45;;;;;11.80;97486.00;;;;8342805;28;20654;-80
2022/03/26 08:34:22;;;;;;;44.70;20.30;;;;;12.20;97488.00;;;;8343043;28;20315;-77
2022/03/26 08:38:25;;;;;;;56.13;21.97;;;;;12.70;97491.00;;;;8333413;28;20237;-80
2022/03/26 08:42:28;;;;;;;57.87;21.17;;;;;13.00;97498.00;;;;8339591;28;20225;-80
2022/03/26 08:46:31;;;;;;;50.28;21.15;;;;;13.50;97491.00;;;;8351006;28;20613;-75
2022/03/26 08:50:36;;;;;;;46.92;19.90;;;;;13.80;97499.00;;;;8350032;28;20280;-77
2022/03/26 08:54:39;;;;;;;50.78;20.85;;;;;14.30;97486.00;;;;8339091;28;20255;-76
2022/03/26 08:58:43;;;;;;;53.15;20.90;;;;;14.70;97492.00;;;;8346736;28;20246;-73
2022/03/26 09:02:46;;;;;;;49.65;20.08;;;;;15.00;97495.00;;;;8347390;28;20786;-77
2022/03/26 09:06:52;;;;;;;51.00;19.63;;;;;15.30;97492.00;;;;8349033;28;20250;-75
2022/03/26 09:10:56;;;;;;;42.60;18.70;;;;;15.90;97491.00;;;;8342101;28;20243;-72
2022/03/26 09:14:59;;;;;;;42.58;20.45;;;;;16.50;97489.00;;;;8347135;28;20234;-76
2022/03/26 09:19:02;;;;;;;47.25;20.10;;;;;16.80;97487.00;;;;8348384;28;20639;-77
2022/03/26 09:23:07;;;;;;;47.58;19.30;;;;;17.80;97491.00;;;;8342360;28;20269;-77
2022/03/26 09:27:11;;;;;;;44.92;19.15;;;;;18.20;97485.00;;;;8347800;28;20277;-75
2022/03/26 09:31:14;;;;;;;49.63;19.90;;;;;18.50;97479.00;;;;8347890;28;20250;-78
2022/03/26 09:35:17;;;;;;;43.22;20.08;;;;;19.20;97486.00;;;;8347940;28;20260;-76
2022/03/26 09:39:22;;;;;;;50.53;20.48;;;;;20.00;97488.00;;;;8348127;28;20224;-76
2022/03/26 09:43:28;;;;;;;41.15;19.13;;;;;20.20;97490.00;;;;8341593;28;20231;-76
2022/03/26 09:47:31;;;;;;;45.95;18.55;;;;;20.30;97487.00;;;;8339593;28;20582;-71
2022/03/26 09:51:34;;;;;;;38.35;18.90;;;;;20.80;97487.00;;;;8325983;28;20765;-72
2022/03/26 09:55:40;;;;;;;43.42;18.20;;;;;21.20;97492.00;;;;8345645;28;20231;-74
2022/03/26 09:59:43;;;;;;;39.55;18.00;;;;;21.20;97495.00;;;;8347720;28;20247;-75
2022/03/26 10:04:11;;;;;;;42.38;17.63;;;;;21.00;97488.00;;;;8348014;28;20307;-74
2022/03/26 10:08:20;;;;;;;44.83;20.17;;;;;21.20;97491.00;;;;8348963;28;20784;-74
2022/03/26 10:12:26;;;;;;;39.30;17.50;;;;;21.00;97489.00;;;;8340909;28;20731;-74
2022/03/26 10:16:29;;;;;;;38.90;18.58;;;;;21.20;97492.00;;;;8347379;28;20638;-75
2022/03/26 10:20:33;;;;;;;40.45;17.23;;;;;21.20;97479.00;;;;8340625;28;20260;-73
2022/03/26 10:24:43;;;;;;;34.38;16.77;;;;;21.20;97484.00;;;;8343873;28;20624;-75
2022/03/26 10:28:52;;;;;;;45.13;19.50;;;;;20.70;97476.00;;;;8333311;28;20339;-75
2022/03/26 10:32:56;;;;;;;36.92;18.23;;;;;20.40;97477.00;;;;8347048;28;20228;-77
2022/03/26 10:37:02;;;;;;;32.17;15.88;;;;;20.00;97482.00;;;;8345257;28;20952;-72
2022/03/26 10:41:07;;;;;;;41.90;17.98;;;;;19.60;97480.00;;;;8346173;28;20231;-71
2022/03/26 10:45:16;;;;;;;46.33;17.00;;;;;19.20;97473.00;;;;8342995;28;20909;-74
2022/03/26 10:49:27;;;;;;;39.00;17.00;;;;;19.00;97470.00;;;;8347503;28;20232;-73
2022/03/26 10:53:35;;;;;;;34.53;16.65;;;;;18.70;97462.00;;;;8347867;28;20260;-74
2022/03/26 10:57:39;;;;;;;37.38;16.70;;;;;18.60;97464.00;;;;8346241;28;20216;-74
2022/03/26 11:01:44;;;;;;;42.45;16.27;;;;;18.70;97463.00;;;;8339957;28;20246;-76
2022/03/26 11:05:50;;;;;;;42.60;16.55;;;;;18.90;97460.00;;;;8343728;28;20236;-76
2022/03/26 11:09:55;;;;;;;34.67;15.80;;;;;19.30;97459.00;;;;8340515;28;20342;-77
2022/03/26 11:14:02;;;;;;;35.70;16.15;;;;;19.60;97465.00;;;;8343888;28;20225;-73
2022/03/26 11:18:32;;;;;;;38.55;16.80;;;;;19.20;97450.00;;;;8343946;28;20336;-77
2022/03/26 11:22:50;;;;;;;33.08;14.88;;;;;19.30;97445.00;;;;8341598;28;20662;-77
2022/03/26 11:27:09;;;;;;;31.73;14.88;;;;;19.20;97446.00;;;;8337112;28;20225;-75
2022/03/26 11:31:25;;;;;;;28.60;14.02;;;;;19.00;97438.00;;;;8342155;28;20238;-76
2022/03/26 11:35:33;;;;;;;27.17;13.45;;;;;19.00;97445.00;;;;8344362;28;20233;-74
2022/03/26 11:39:44;;;;;;;27.25;13.40;;;;;19.10;97433.00;;;;8340917;28;20220;-74
2022/03/26 11:43:56;;;;;;;33.83;15.50;;;;;19.20;97434.00;;;;8338897;28;20221;-75
2022/03/26 11:52:25;;;;;;;26.85;13.85;;;;;19.60;97428.00;;;;8338483;28;20228;-76
2022/03/26 11:56:30;;;;;;;28.63;12.95;;;;;19.50;97419.00;;;;8339916;28;20320;-69
2022/03/26 12:00:33;;;;;;;28.17;12.73;;;;;19.30;97418.00;;;;8340491;28;20327;-74
2022/03/26 12:04:48;;;;;;;23.10;11.93;;;;;19.20;97409.00;;;;8343426;28;20270;-73
2022/03/26 12:08:55;;;;;;;20.90;10.50;;;;;19.00;97407.00;;;;8341795;28;20231;-73
2022/03/26 12:13:01;;;;;;;24.67;9.63;;;;;19.00;97407.00;;;;8348255;28;20256;-76
2022/03/26 12:17:05;;;;;;;32.80;12.77;;;;;18.80;97402.00;;;;8344634;28;20248;-74
2022/03/26 12:21:09;;;;;;;26.25;11.57;;;;;18.70;97401.00;;;;8344844;28;21301;-74
2022/03/26 12:25:16;;;;;;;28.08;13.45;;;;;18.70;97396.00;;;;8347729;28;20234;-72
2022/03/26 12:29:19;;;;;;;28.52;13.52;;;;;18.60;97388.00;;;;8348589;28;20220;-71
2022/03/26 12:33:25;;;;;;;31.52;12.95;;;;;18.60;97387.00;;;;8344433;28;20259;-71
2022/03/26 12:37:28;;;;;;;31.23;13.80;;;;;18.70;97380.00;;;;8346843;28;20275;-69
2022/03/26 12:41:33;;;;;;;23.55;11.18;;;;;18.60;97378.00;;;;8349396;28;20592;-69
2022/03/26 12:45:37;;;;;;;26.42;11.48;;;;;18.50;97374.00;;;;8348416;28;20772;-72
2022/03/26 12:49:40;;;;;;;18.38;8.63;;;;;18.50;97375.00;;;;8346761;28;20232;-72
2022/03/26 12:53:43;;;;;;;19.23;8.80;;;;;18.40;97370.00;;;;8347140;28;20239;-70
2022/03/26 13:02:11;;;;;;;17.83;8.00;;;;;18.40;97361.00;;;;8344314;28;20768;-73
2022/03/26 13:06:16;;;;;;;13.98;7.60;;;;;18.50;97354.00;;;;8341671;28;20233;-72
2022/03/26 13:10:29;;;;;;;14.27;8.00;;;;;18.50;97354.00;;;;8340981;28;20231;-79
2022/03/26 13:14:34;;;;;;;16.50;8.30;;;;;18.70;97350.00;;;;8340746;28;20253;-74
2022/03/26 13:18:45;;;;;;;16.73;8.35;;;;;18.80;97350.00;;;;8346809;28;20209;-79
2022/03/26 13:22:53;;;;;;;23.00;9.55;;;;;19.20;97343.00;;;;8347829;28;20304;-80
2022/03/26 13:27:02;;;;;;;23.80;9.00;;;;;19.20;97348.00;;;;8349306;28;20212;-80
2022/03/26 13:31:22;;;;;;;23.70;9.57;;;;;19.00;97347.00;;;;8347845;28;20278;-79
2022/03/26 13:35:25;;;;;;;21.00;9.25;;;;;19.00;97340.00;;;;8349172;28;20697;-80
2022/03/26 13:39:31;;;;;;;24.08;9.93;;;;;19.00;97342.00;;;;8345843;28;20224;-80
2022/03/26 13:43:34;;;;;;;24.75;9.07;;;;;19.00;97339.00;;;;8347839;28;20231;-81
2022/03/26 13:47:39;;;;;;;21.63;9.98;;;;;19.00;97339.00;;;;8346765;28;20805;-81
2022/03/26 13:51:43;;;;;;;23.30;10.32;;;;;19.10;97332.00;;;;8347325;28;20228;-80
2022/03/26 13:55:50;;;;;;;21.90;10.80;;;;;19.30;97327.00;;;;8344587;28;20316;-79
2022/03/26 13:59:54;;;;;;;17.55;9.98;;;;;19.40;97323.00;;;;8346584;28;20217;-79
2022/03/26 14:03:58;;;;;;;21.95;10.65;;;;;19.60;97327.00;;;;8344598;28;20230;-78
2022/03/26 14:08:03;;;;;;;26.77;10.18;;;;;20.00;97332.00;;;;8345275;28;20311;-78
2022/03/26 14:12:07;;;;;;;27.33;9.80;;;;;20.20;97328.00;;;;8341809;28;20264;-77
2022/03/26 14:16:11;;;;;;;19.10;9.23;;;;;20.20;97324.00;;;;8342176;28;20316;-77
2022/03/26 14:20:16;;;;;;;29.77;10.10;;;;;20.30;97320.00;;;;8341606;28;20228;-71
2022/03/26 14:24:19;;;;;;;20.23;10.50;;;;;20.40;97313.00;;;;8346332;28;20238;-73
2022/03/26 14:28:23;;;;;;;21.15;9.90;;;;;20.40;97315.00;;;;8341313;28;20228;-75
2022/03/26 14:32:27;;;;;;;19.58;9.00;;;;;20.60;97312.00;;;;8342733;28;20250;-75
2022/03/26 14:36:33;;;;;;;25.55;10.57;;;;;20.70;97314.00;;;;8342778;28;20259;-77
2022/03/26 14:40:37;;;;;;;21.70;10.73;;;;;20.80;97302.00;;;;8342910;28;20229;-80
2022/03/26 14:44:40;;;;;;;21.02;9.20;;;;;20.90;97310.00;;;;8346251;28;20788;-75
2022/03/26 14:48:44;;;;;;;24.88;10.45;;;;;20.80;97301.00;;;;8343581;28;20230;-73
2022/03/26 14:52:49;;;;;;;23.85;9.45;;;;;20.60;97303.00;;;;8343339;28;20244;-72
2022/03/26 14:56:53;;;;;;;25.70;9.63;;;;;20.30;97307.00;;;;8342318;28;20243;-74
2022/03/26 15:00:56;;;;;;;25.08;9.00;;;;;20.20;97308.00;;;;8344874;28;20221;-73
2022/03/26 15:04:59;;;;;;;17.67;9.20;;;;;20.30;97305.00;;;;8345905;28;20864;-73
2022/03/26 15:09:04;;;;;;;19.35;9.30;;;;;20.40;97306.00;;;;8339021;28;20223;-74
2022/03/26 15:13:07;;;;;;;25.25;9.68;;;;;20.40;97303.00;;;;8336719;28;20320;-74
2022/03/26 15:17:11;;;;;;;23.92;8.98;;;;;20.50;97303.00;;;;8335830;28;20307;-74
2022/03/26 15:21:14;;;;;;;16.88;7.90;;;;;20.50;97308.00;;;;8340246;28;20681;-75
2022/03/26 15:25:18;;;;;;;19.92;8.00;;;;;20.30;97299.00;;;;8342334;28;20839;-77
2022/03/26 15:29:22;;;;;;;21.63;8.27;;;;;20.20;97306.00;;;;8341217;28;20818;-76
2022/03/26 15:33:25;;;;;;;22.98;8.63;;;;;20.10;97301.00;;;;8342985;28;20242;-72
2022/03/26 15:37:29;;;;;;;25.38;8.00;;;;;20.10;97307.00;;;;8343409;28;20239;-73
2022/03/26 15:41:35;;;;;;;25.95;8.50;;;;;20.10;97302.00;;;;8342476;28;20249;-75
2022/03/26 15:45:39;;;;;;;24.17;8.75;;;;;20.10;97307.00;;;;8350876;28;20230;-74
2022/03/26 15:49:52;;;;;;;23.27;9.43;;;;;19.90;97297.00;;;;8344638;28;20931;-72
2022/03/26 15:53:56;;;;;;;25.98;8.93;;;;;19.90;97301.00;;;;8347916;28;20625;-72
2022/03/26 15:58:02;;;;;;;26.70;9.55;;;;;20.00;97302.00;;;;8348204;28;20294;-72
2022/03/26 16:02:05;;;;;;;25.45;9.15;;;;;20.00;97307.00;;;;8348272;28;20715;-72
2022/03/26 16:06:08;;;;;;;24.75;10.02;;;;;20.00;97310.00;;;;8340994;28;20740;-72
2022/03/26 16:10:12;;;;;;;21.45;9.77;;;;;20.00;97309.00;;;;8345125;28;20236;-71
2022/03/26 16:14:23;;;;;;;27.35;9.80;;;;;20.10;97313.00;;;;8342442;28;20320;-71
2022/03/26 16:18:27;;;;;;;23.25;10.10;;;;;20.00;97314.00;;;;8345059;28;20248;-71
2022/03/26 16:22:31;;;;;;;30.67;10.75;;;;;19.90;97322.00;;;;8342770;28;20726;-74
2022/03/26 16:26:37;;;;;;;23.75;9.80;;;;;19.80;97311.00;;;;8343213;28;20409;-72
2022/03/26 16:30:41;;;;;;;26.95;10.18;;;;;19.60;97313.00;;;;8336428;28;20257;-71
2022/03/26 16:34:45;;;;;;;27.48;10.35;;;;;19.10;97324.00;;;;8341249;28;20237;-73
2022/03/26 16:38:48;;;;;;;19.40;9.10;;;;;18.70;97323.00;;;;8341605;28;20259;-75
2022/03/26 16:42:55;;;;;;;19.58;9.07;;;;;18.40;97322.00;;;;8343812;28;20224;-75
2022/03/26 16:47:00;;;;;;;24.50;10.02;;;;;18.10;97326.00;;;;8341766;28;20228;-73
2022/03/26 16:51:05;;;;;;;26.60;9.05;;;;;17.90;97325.00;;;;8338050;28;20236;-73
2022/03/26 16:55:08;;;;;;;25.42;8.88;;;;;17.60;97315.00;;;;8340017;28;20224;-73
2022/03/26 16:59:11;;;;;;;24.83;9.90;;;;;17.40;97314.00;;;;8339828;28;20235;-78
2022/03/26 17:03:16;;;;;;;26.60;9.20;;;;;17.10;97319.00;;;;8341657;28;20238;-72
2022/03/26 17:07:19;;;;;;;28.27;9.43;;;;;16.90;97313.00;;;;8343304;28;20717;-72
2022/03/26 17:11:22;;;;;;;30.00;9.90;;;;;16.60;97329.00;;;;8342047;28;20619;-72
2022/03/26 17:15:26;;;;;;;28.13;11.48;;;;;16.30;97327.00;;;;8346773;28;20228;-71
2022/03/26 17:19:30;;;;;;;28.73;9.25;;;;;16.10;97331.00;;;;8338407;28;20224;-71
2022/03/26 17:23:33;;;;;;;27.85;10.32;;;;;15.80;97324.00;;;;8338701;28;20236;-72
2022/03/26 17:27:36;;;;;;;39.20;10.57;;;;;15.50;97324.00;;;;8337315;28;20239;-73
2022/03/26 17:31:40;;;;;;;25.30;10.05;;;;;15.10;97330.00;;;;8335565;28;20229;-70
2022/03/26 17:35:44;;;;;;;26.08;9.38;;;;;14.80;97332.00;;;;8336745;28;20236;-70
2022/03/26 17:39:49;;;;;;;29.85;9.07;;;;;14.50;97332.00;;;;8341004;28;20220;-69
2022/03/26 17:43:52;;;;;;;26.88;8.23;;;;;14.10;97325.00;;;;8341462;28;20245;-70
2022/03/26 17:47:55;;;;;;;26.08;9.38;;;;;13.80;97332.00;;;;8342621;28;20230;-69
2022/03/26 17:52:00;;;;;;;27.00;10.57;;;;;13.60;97328.00;;;;8342986;28;20251;-69
2022/03/26 17:56:03;;;;;;;26.30;9.57;;;;;13.40;97335.00;;;;8340380;28;20237;-68
2022/03/26 18:00:09;;;;;;;28.42;9.35;;;;;13.20;97333.00;;;;8344622;28;20318;-70
2022/03/26 18:04:12;;;;;;;21.58;8.25;;;;;13.10;97334.00;;;;8343051;28;20245;-67
2022/03/26 18:08:17;;;;;;;27.67;9.40;;;;;12.80;97339.00;;;;8343746;28;20728;-68
2022/03/26 18:12:21;;;;;;;40.60;13.32;;;;;12.40;97350.00;;;;8340695;28;20738;-67
2022/03/26 18:16:24;;;;;;;30.40;10.30;;;;;12.00;97351.00;;;;8339825;28;20605;-67
2022/03/26 18:20:29;;;;;;;25.50;9.83;;;;;11.70;97346.00;;;;8333861;28;20226;-69
2022/03/26 18:24:36;;;;;;;26.97;8.57;;;;;11.40;97351.00;;;;8333347;28;21097;-69
2022/03/26 18:28:39;;;;;;;23.35;8.38;;;;;11.10;97352.00;;;;8337822;28;20220;-69
2022/03/26 18:32:43;;;;;;;25.23;9.20;;;;;10.80;97353.00;;;;8335416;28;20727;-68
2022/03/26 18:36:47;;;;;;;22.90;10.20;;;;;10.60;97355.00;;;;8340770;28;20224;-68
2022/03/26 18:40:52;;;;;;;27.50;9.23;;;;;10.40;97361.00;;;;8339806;28;20380;-67
2022/03/26 18:44:55;;;;;;;21.33;9.50;;;;;10.20;97359.00;;;;8342322;28;20232;-69
2022/03/26 18:48:59;;;;;;;28.67;8.27;;;;;10.00;97365.00;;;;8338447;28;20764;-68
2022/03/26 18:53:02;;;;;;;29.93;9.47;;;;;9.80;97369.00;;;;8342610;28;20236;-68
2022/03/26 18:57:07;;;;;;;46.00;16.17;;;;;9.70;97369.00;;;;8338318;28;20316;-67
2022/03/26 19:01:11;;;;;;;49.23;15.67;;;;;9.50;97378.00;;;;8341858;28;20251;-68
2022/03/26 19:05:14;;;;;;;28.43;8.67;;;;;9.50;97382.00;;;;8336425;28;20240;-68
2022/03/26 19:09:17;;;;;;;20.60;8.23;;;;;9.60;97375.00;;;;8341643;28;20228;-68
2022/03/26 19:13:22;;;;;;;19.77;6.77;;;;;10.00;97383.00;;;;8339138;28;20228;-66
2022/03/26 19:17:25;;;;;;;22.63;7.90;;;;;10.40;97385.00;;;;8342548;28;20235;-68
2022/03/26 19:21:29;;;;;;;20.17;6.90;;;;;10.80;97376.00;;;;8342255;28;20223;-68
2022/03/26 19:25:33;;;;;;;22.83;7.60;;;;;11.10;97389.00;;;;8348040;28;20955;-67
2022/03/26 19:29:39;;;;;;;25.70;8.33;;;;;11.10;97384.00;;;;8342693;28;20232;-71
2022/03/26 19:33:43;;;;;;;25.37;8.20;;;;;11.30;97390.00;;;;8342355;28;20228;-71
2022/03/26 19:37:46;;;;;;;19.33;8.27;;;;;11.40;97397.00;;;;8347547;28;20224;-72
2022/03/26 19:41:50;;;;;;;29.63;7.73;;;;;11.30;97398.00;;;;8344966;28;20247;-72
2022/03/26 19:45:54;;;;;;;26.30;10.83;;;;;11.00;97400.00;;;;8343485;28;20224;-74
2022/03/26 19:49:58;;;;;;;63.43;14.73;;;;;10.80;97405.00;;;;8339625;28;20262;-71
2022/03/26 19:54:01;;;;;;;25.63;7.70;;;;;10.60;97398.00;;;;8344998;28;20244;-72
2022/03/26 19:58:04;;;;;;;26.10;7.97;;;;;10.50;97409.00;;;;8346649;28;20228;-73
2022/03/26 20:02:10;;;;;;;21.90;7.80;;;;;10.60;97409.00;;;;8342961;28;20239;-74
2022/03/26 20:06:14;;;;;;;22.73;7.40;;;;;10.60;97407.00;;;;8341781;28;20697;-76
2022/03/26 20:10:18;;;;;;;21.77;8.17;;;;;10.60;97404.00;;;;8343712;28;20229;-73
2022/03/26 20:14:21;;;;;;;30.13;9.43;;;;;10.70;97413.00;;;;8342839;28;20228;-72
2022/03/26 20:18:41;;;;;;;19.30;7.93;;;;;10.80;97411.00;;;;8345238;28;20233;-71